createdAt,value
2022-10-31T00:01:14.599Z,14.10
2022-10-31T00:03:43.043Z,14.10
2022-10-31T00:06:11.703Z,14.10
2022-10-31T00:08:39.899Z,14.10
2022-10-31T00:11:12.887Z,14.20
2022-10-31T00:13:41.178Z,14.10
2022-10-31T00:16:16.093Z,14.20
2022-10-31T00:18:44.476Z,14.10
2022-10-31T00:21:12.690Z,14.10
2022-10-31T00:23:40.910Z,14.10
2022-10-31T00:26:09.186Z,14.10
2022-10-31T00:28:38.822Z,14.10
2022-10-31T00:31:09.750Z,14.10
2022-10-31T00:33:39.546Z,14.10
2022-10-31T00:36:09.640Z,14.10
2022-10-31T00:38:37.938Z,14.10
2022-10-31T00:41:06.406Z,14.10
2022-10-31T00:43:34.713Z,14.10
2022-10-31T00:46:04.319Z,14.10
2022-10-31T00:48:32.848Z,14.10
2022-10-31T00:51:01.335Z,14.10
2022-10-31T00:53:29.614Z,14.10
2022-10-31T00:55:57.924Z,14.10
2022-10-31T00:58:26.202Z,14.00
2022-10-31T01:00:56.944Z,14.00
2022-10-31T01:03:28.562Z,14.00
2022-10-31T01:06:01.819Z,13.90
2022-10-31T01:08:30.847Z,13.90
2022-10-31T01:11:04.443Z,13.80
2022-10-31T01:13:35.058Z,13.80
2022-10-31T01:16:04.331Z,13.80
2022-10-31T01:18:36.407Z,13.80
2022-10-31T01:21:06.765Z,13.70
2022-10-31T01:23:35.898Z,13.60
2022-10-31T01:26:07.872Z,13.60
2022-10-31T01:28:37.514Z,13.60
2022-10-31T01:31:07.750Z,13.50
2022-10-31T01:33:38.605Z,13.50
2022-10-31T01:36:14.686Z,13.40
2022-10-31T01:38:43.059Z,13.40
2022-10-31T01:41:12.821Z,13.40
2022-10-31T01:43:45.883Z,13.30
2022-10-31T01:46:14.647Z,13.30
2022-10-31T01:48:44.406Z,13.30
2022-10-31T01:51:15.528Z,13.20
2022-10-31T01:53:46.709Z,13.20
2022-10-31T01:56:17.902Z,13.20
2022-10-31T01:58:48.359Z,13.20
2022-10-31T02:01:19.914Z,13.10
2022-10-31T02:03:50.284Z,13.20
2022-10-31T02:06:27.406Z,13.10
2022-10-31T02:08:56.783Z,13.10
2022-10-31T02:11:25.493Z,13.10
2022-10-31T02:13:55.004Z,13.00
2022-10-31T02:16:24.580Z,13.00
2022-10-31T02:18:57.143Z,12.90
2022-10-31T02:21:32.531Z,12.90
2022-10-31T02:24:31.702Z,12.80
2022-10-31T02:27:09.456Z,12.70
2022-10-31T02:30:12.057Z,12.70
2022-10-31T02:33:06.549Z,12.70
2022-10-31T02:35:43.073Z,12.60
2022-10-31T02:38:25.219Z,12.60
2022-10-31T02:41:01.888Z,12.60
2022-10-31T02:43:49.922Z,12.50
2022-10-31T02:46:31.095Z,12.50
2022-10-31T02:49:08.054Z,12.50
2022-10-31T02:51:37.297Z,12.40
2022-10-31T02:54:05.806Z,12.40
2022-10-31T02:56:34.128Z,12.40
2022-10-31T02:59:05.071Z,12.30
2022-10-31T03:01:56.412Z,12.30
2022-10-31T03:04:40.499Z,12.30
2022-10-31T03:07:17.861Z,12.30
2022-10-31T03:09:53.578Z,12.30
2022-10-31T03:12:31.024Z,12.30
2022-10-31T03:15:14.079Z,12.30
2022-10-31T03:17:54.528Z,12.30
2022-10-31T03:20:34.678Z,12.20
2022-10-31T03:23:03.976Z,12.30
2022-10-31T03:25:33.818Z,12.20
2022-10-31T03:28:04.664Z,12.30
2022-10-31T03:30:38.449Z,12.20
2022-10-31T03:33:12.581Z,12.10
2022-10-31T03:35:46.264Z,12.10
2022-10-31T03:38:16.708Z,12.10
2022-10-31T03:40:48.149Z,12.00
2022-10-31T03:45:51.245Z,12.00
2022-10-31T03:48:22.605Z,11.90
2022-10-31T03:51:03.323Z,11.90
2022-10-31T03:53:36.052Z,11.80
2022-10-31T03:56:12.520Z,11.80
2022-10-31T03:58:46.575Z,11.80
2022-10-31T04:01:18.946Z,11.70
2022-10-31T04:03:48.318Z,11.70
2022-10-31T04:06:20.412Z,11.70
2022-10-31T04:08:53.208Z,11.70
2022-10-31T04:11:25.597Z,11.60
2022-10-31T04:14:14.097Z,11.60
2022-10-31T04:16:44.920Z,11.60
2022-10-31T04:19:14.528Z,11.50
2022-10-31T04:21:44.432Z,11.50
2022-10-31T04:24:13.297Z,11.40
2022-10-31T04:26:42.671Z,11.40
2022-10-31T04:29:10.907Z,11.40
2022-10-31T04:31:40.189Z,11.40
2022-10-31T04:34:09.358Z,11.30
2022-10-31T04:36:37.575Z,11.30
2022-10-31T04:39:07.292Z,11.30
2022-10-31T04:41:43.347Z,11.20
2022-10-31T04:44:16.937Z,11.30
2022-10-31T04:46:48.667Z,11.20
2022-10-31T04:49:16.991Z,11.30
2022-10-31T04:51:45.965Z,11.20
2022-10-31T04:54:17.024Z,11.20
2022-10-31T04:57:04.100Z,11.20
2022-10-31T04:59:33.444Z,11.20
2022-10-31T05:02:02.007Z,11.20
2022-10-31T05:04:44.135Z,11.20
2022-10-31T05:07:12.417Z,11.30
2022-10-31T05:09:42.122Z,11.30
2022-10-31T05:12:10.324Z,11.40
2022-10-31T05:15:01.403Z,11.50
2022-10-31T05:17:48.407Z,11.50
2022-10-31T05:20:51.663Z,11.60
2022-10-31T05:23:45.873Z,11.70
2022-10-31T05:26:19.002Z,11.60
2022-10-31T05:28:49.085Z,11.60
2022-10-31T05:31:17.938Z,11.60
2022-10-31T05:33:46.350Z,11.70
2022-10-31T05:36:33.188Z,11.70
2022-10-31T05:39:05.270Z,11.70
2022-10-31T05:41:42.721Z,11.80
2022-10-31T05:44:17.047Z,11.70
2022-10-31T05:47:14.244Z,11.70
2022-10-31T05:49:57.682Z,11.60
2022-10-31T05:52:44.552Z,11.60
2022-10-31T05:55:21.959Z,11.60
2022-10-31T05:58:06.055Z,11.70
2022-10-31T06:00:36.946Z,11.60
2022-10-31T06:03:11.303Z,11.70
2022-10-31T06:05:45.613Z,11.60
2022-10-31T06:08:16.150Z,11.70
2022-10-31T06:10:45.934Z,11.60
2022-10-31T06:13:18.073Z,11.70
2022-10-31T06:15:49.914Z,11.60
2022-10-31T06:18:22.166Z,11.70
2022-10-31T06:20:55.390Z,11.70
2022-10-31T06:23:24.973Z,11.70
2022-10-31T06:26:06.758Z,11.70
2022-10-31T06:28:36.472Z,11.80
2022-10-31T06:31:15.953Z,11.70
2022-10-31T06:33:44.516Z,11.70
2022-10-31T06:36:12.949Z,11.70
2022-10-31T06:38:41.409Z,11.60
2022-10-31T06:41:11.590Z,11.60
2022-10-31T06:43:51.787Z,11.50
2022-10-31T06:46:37.862Z,11.50
2022-10-31T06:49:28.674Z,11.40
2022-10-31T06:52:01.429Z,11.40
2022-10-31T06:54:29.743Z,11.40
2022-10-31T06:56:58.430Z,11.40
2022-10-31T06:59:28.208Z,11.50
2022-10-31T07:02:19.835Z,11.50
2022-10-31T07:04:48.195Z,11.60
2022-10-31T07:07:18.720Z,11.60
2022-10-31T07:09:47.699Z,11.80
2022-10-31T07:12:18.758Z,11.80
2022-10-31T07:14:57.498Z,11.80
2022-10-31T07:17:29.867Z,11.90
2022-10-31T07:20:01.034Z,12.00
2022-10-31T07:22:34.943Z,12.00
2022-10-31T07:25:05.107Z,12.00
2022-10-31T07:27:53.447Z,12.10
2022-10-31T07:30:23.214Z,12.10
2022-10-31T07:32:56.391Z,12.20
2022-10-31T07:35:28.142Z,12.30
2022-10-31T07:37:59.611Z,12.40
2022-10-31T07:40:28.344Z,12.50
2022-10-31T07:43:00.184Z,12.60
2022-10-31T07:45:53.116Z,12.70
2022-10-31T07:48:39.999Z,12.80
2022-10-31T07:51:27.422Z,13.00
2022-10-31T07:54:15.712Z,13.10
2022-10-31T07:56:44.219Z,13.30
2022-10-31T07:59:12.490Z,13.40
2022-10-31T08:01:42.730Z,13.50
2022-10-31T08:04:34.197Z,13.70
2022-10-31T08:07:20.994Z,13.80
2022-10-31T08:09:57.016Z,14.00
2022-10-31T08:12:28.957Z,14.20
2022-10-31T08:14:57.270Z,14.30
2022-10-31T08:17:27.428Z,14.50
2022-10-31T08:20:00.866Z,14.70
2022-10-31T08:22:42.820Z,14.90
2022-10-31T08:25:12.548Z,15.00
2022-10-31T08:27:41.164Z,15.20
2022-10-31T08:30:17.660Z,15.30
2022-10-31T08:33:05.755Z,15.30
2022-10-31T08:35:52.636Z,15.40
2022-10-31T08:38:39.215Z,15.70
2022-10-31T08:41:10.895Z,15.90
2022-10-31T08:43:39.208Z,16.00
2022-10-31T08:46:07.842Z,16.00
2022-10-31T08:48:37.784Z,16.10
2022-10-31T08:51:08.124Z,16.10
2022-10-31T08:53:36.440Z,16.20
2022-10-31T08:56:30.699Z,16.40
2022-10-31T08:58:59.114Z,16.50
2022-10-31T09:01:53.627Z,16.70
2022-10-31T09:04:24.441Z,16.90
2022-10-31T09:09:41.155Z,17.20
2022-10-31T09:12:09.621Z,17.20
2022-10-31T09:15:10.839Z,17.30
2022-10-31T09:17:57.802Z,17.40
2022-10-31T09:20:48.416Z,17.50
2022-10-31T09:23:18.404Z,17.60
2022-10-31T09:25:50.507Z,17.70
2022-10-31T09:28:37.607Z,17.80
2022-10-31T09:31:14.430Z,17.90
2022-10-31T09:34:06.009Z,17.90
2022-10-31T09:36:51.915Z,18.00
2022-10-31T09:39:22.175Z,18.10
2022-10-31T09:42:22.115Z,18.10
2022-10-31T09:45:01.136Z,18.00
2022-10-31T09:47:46.597Z,18.20
2022-10-31T09:50:42.401Z,18.40
2022-10-31T09:53:37.740Z,18.50
2022-10-31T09:56:10.774Z,18.60
2022-10-31T09:58:45.105Z,18.70
2022-10-31T10:01:26.949Z,18.70
2022-10-31T10:04:00.525Z,18.80
2022-10-31T10:06:55.867Z,18.80
2022-10-31T10:09:44.357Z,18.90
2022-10-31T10:12:43.092Z,18.90
2022-10-31T10:15:29.693Z,19.00
2022-10-31T10:18:07.101Z,19.00
2022-10-31T10:20:43.348Z,18.90
2022-10-31T10:23:25.785Z,18.90
2022-10-31T10:26:07.435Z,18.80
2022-10-31T10:28:42.683Z,18.90
2022-10-31T10:31:16.822Z,19.00
2022-10-31T10:33:55.579Z,19.20
2022-10-31T10:36:29.210Z,19.20
2022-10-31T10:39:02.576Z,19.30
2022-10-31T10:41:34.741Z,19.30
2022-10-31T10:44:03.833Z,19.40
2022-10-31T10:47:08.082Z,19.70
2022-10-31T10:49:45.984Z,19.70
2022-10-31T10:52:40.738Z,19.90
2022-10-31T10:55:16.487Z,20.00
2022-10-31T10:57:57.807Z,20.10
2022-10-31T11:00:28.532Z,20.00
2022-10-31T11:02:57.692Z,20.00
2022-10-31T11:05:32.295Z,20.20
2022-10-31T11:08:00.515Z,20.30
2022-10-31T11:10:29.161Z,20.40
2022-10-31T11:13:08.472Z,20.60
2022-10-31T11:15:41.817Z,20.70
2022-10-31T11:18:22.678Z,20.80
2022-10-31T11:20:54.406Z,20.80
2022-10-31T11:23:24.326Z,20.90
2022-10-31T11:25:55.954Z,20.90
2022-10-31T11:28:25.850Z,21.00
2022-10-31T11:30:57.693Z,20.90
2022-10-31T11:33:30.105Z,20.90
2022-10-31T11:35:59.393Z,20.90
2022-10-31T11:38:35.504Z,20.90
2022-10-31T11:41:12.217Z,20.70
2022-10-31T11:43:48.527Z,20.50
2022-10-31T11:46:22.657Z,20.40
2022-10-31T11:48:53.628Z,20.10
2022-10-31T11:51:28.234Z,20.00
2022-10-31T11:54:02.724Z,19.90
2022-10-31T11:56:41.706Z,19.90
2022-10-31T11:59:22.877Z,19.70
2022-10-31T12:01:53.425Z,19.70
2022-10-31T12:04:29.617Z,19.60
2022-10-31T12:06:57.931Z,19.50
2022-10-31T12:09:30.952Z,19.50
2022-10-31T12:12:33.832Z,19.50
2022-10-31T12:15:17.949Z,19.50
2022-10-31T12:17:56.229Z,19.50
2022-10-31T12:20:31.964Z,19.50
2022-10-31T12:23:05.670Z,19.50
2022-10-31T12:25:42.926Z,19.60
2022-10-31T12:28:31.240Z,19.60
2022-10-31T12:31:13.753Z,19.80
2022-10-31T12:33:53.357Z,19.50
2022-10-31T12:36:33.971Z,19.60
2022-10-31T12:39:29.629Z,19.50
2022-10-31T12:42:05.399Z,19.60
2022-10-31T12:44:56.239Z,19.60
2022-10-31T12:47:54.337Z,19.60
2022-10-31T12:50:33.806Z,19.80
2022-10-31T12:53:15.218Z,20.00
2022-10-31T12:55:53.957Z,20.10
2022-10-31T12:58:26.339Z,20.20
2022-10-31T13:01:04.818Z,20.30
2022-10-31T13:03:41.019Z,20.60
2022-10-31T13:06:14.225Z,20.70
2022-10-31T13:08:49.400Z,20.90
2022-10-31T13:11:21.759Z,21.00
2022-10-31T13:13:59.322Z,21.00
2022-10-31T13:16:31.742Z,21.10
2022-10-31T13:19:07.684Z,21.20
2022-10-31T13:21:41.360Z,21.20
2022-10-31T13:24:14.753Z,21.30
2022-10-31T13:26:48.402Z,21.40
2022-10-31T13:29:25.795Z,21.50
2022-10-31T13:31:56.914Z,21.50
2022-10-31T13:34:30.814Z,21.60
2022-10-31T13:37:07.538Z,21.70
2022-10-31T13:40:04.244Z,21.80
2022-10-31T13:42:44.965Z,21.70
2022-10-31T13:45:17.840Z,21.70
2022-10-31T13:47:57.702Z,21.80
2022-10-31T13:50:29.938Z,21.80
2022-10-31T13:53:15.395Z,21.60
2022-10-31T13:55:46.255Z,21.60
2022-10-31T13:58:25.331Z,21.50
2022-10-31T14:01:24.062Z,21.50
2022-10-31T14:04:11.057Z,21.40
2022-10-31T14:06:54.358Z,21.20
2022-10-31T14:09:32.988Z,21.10
2022-10-31T14:12:05.149Z,21.00
2022-10-31T14:14:44.621Z,20.90
2022-10-31T14:17:24.069Z,20.90
2022-10-31T14:20:26.113Z,20.90
2022-10-31T14:22:55.766Z,20.90
2022-10-31T14:25:33.309Z,20.80
2022-10-31T14:28:03.651Z,20.70
2022-10-31T14:30:32.924Z,20.60
2022-10-31T14:33:03.757Z,20.50
2022-10-31T14:35:48.735Z,20.40
2022-10-31T14:38:50.129Z,20.40
2022-10-31T14:41:41.267Z,20.30
2022-10-31T14:44:36.974Z,20.20
2022-10-31T14:47:17.371Z,20.10
2022-10-31T14:50:20.602Z,20.00
2022-10-31T14:52:52.160Z,19.90
2022-10-31T14:55:23.178Z,19.80
2022-10-31T14:57:54.610Z,19.80
2022-10-31T15:00:25.023Z,19.70
2022-10-31T15:03:05.019Z,19.60
2022-10-31T15:05:35.259Z,19.60
2022-10-31T15:08:03.523Z,19.70
2022-10-31T15:10:36.134Z,19.80
2022-10-31T15:13:11.671Z,19.80
2022-10-31T15:15:42.169Z,19.80
2022-10-31T15:18:18.386Z,19.80
2022-10-31T15:20:48.014Z,19.70
2022-10-31T15:23:21.872Z,19.70
2022-10-31T15:25:51.971Z,19.60
2022-10-31T15:28:26.446Z,19.60
2022-10-31T15:30:57.462Z,19.50
2022-10-31T15:33:33.668Z,19.40
2022-10-31T15:36:06.779Z,19.30
2022-10-31T15:38:35.071Z,19.20
2022-10-31T15:41:08.025Z,19.10
2022-10-31T15:43:40.012Z,19.10
2022-10-31T15:46:11.163Z,19.00
2022-10-31T15:48:41.514Z,18.90
2022-10-31T15:51:09.844Z,18.90
2022-10-31T15:53:43.847Z,18.80
2022-10-31T15:56:15.789Z,18.60
2022-10-31T15:58:46.535Z,18.50
2022-10-31T16:01:23.843Z,18.40
2022-10-31T16:04:04.888Z,18.20
2022-10-31T16:06:35.183Z,18.00
2022-10-31T16:09:04.188Z,17.90
2022-10-31T16:11:37.732Z,17.70
2022-10-31T16:14:09.265Z,17.50
2022-10-31T16:16:44.728Z,17.30
2022-10-31T16:19:21.622Z,17.20
2022-10-31T16:21:53.055Z,17.10
2022-10-31T16:24:25.765Z,17.10
2022-10-31T16:26:59.893Z,16.90
2022-10-31T16:29:34.250Z,16.90
2022-10-31T16:32:02.697Z,16.80
2022-10-31T16:34:30.979Z,16.70
2022-10-31T16:36:59.251Z,16.50
2022-10-31T16:39:27.536Z,16.40
2022-10-31T16:41:58.395Z,16.30
2022-10-31T16:44:28.136Z,16.30
2022-10-31T16:47:11.883Z,16.10
2022-10-31T16:49:40.480Z,16.10
2022-10-31T16:52:08.806Z,16.10
2022-10-31T16:54:37.130Z,16.00
2022-10-31T16:57:08.216Z,15.90
2022-10-31T16:59:36.767Z,15.90
2022-10-31T17:02:06.357Z,15.90
2022-10-31T17:07:08.197Z,15.80
2022-10-31T17:09:36.471Z,15.70
2022-10-31T17:12:06.875Z,15.70
2022-10-31T17:14:35.839Z,15.60
2022-10-31T17:17:04.032Z,15.60
2022-10-31T17:19:32.216Z,15.50
2022-10-31T17:22:00.491Z,15.50
2022-10-31T17:24:28.625Z,15.40
2022-10-31T17:26:56.841Z,15.30
2022-10-31T17:29:26.372Z,15.30
2022-10-31T17:31:54.723Z,15.30
2022-10-31T17:34:22.873Z,15.20
2022-10-31T17:36:51.799Z,15.10
2022-10-31T17:39:20.686Z,15.10
2022-10-31T17:41:51.995Z,15.10
2022-10-31T17:44:20.294Z,15.00
2022-10-31T17:46:50.365Z,15.00
2022-10-31T17:49:18.610Z,14.90
2022-10-31T17:51:46.862Z,14.90
2022-10-31T17:54:18.431Z,14.90
2022-10-31T17:56:46.679Z,14.80
2022-10-31T17:59:14.900Z,14.80
2022-10-31T18:01:43.257Z,14.70
2022-10-31T18:04:13.093Z,14.70
2022-10-31T18:06:41.331Z,14.70
2022-10-31T18:09:09.684Z,14.60
2022-10-31T18:11:37.923Z,14.70
2022-10-31T18:14:06.211Z,14.60
2022-10-31T18:19:07.658Z,14.60
2022-10-31T18:21:37.249Z,14.50
2022-10-31T18:24:06.689Z,14.60
2022-10-31T18:26:34.937Z,14.60
2022-10-31T18:29:03.536Z,14.60
2022-10-31T18:31:32.150Z,14.60
2022-10-31T18:34:00.456Z,14.60
2022-10-31T18:36:28.700Z,14.70
2022-10-31T18:38:58.343Z,14.60
2022-10-31T18:41:26.863Z,14.60
2022-10-31T18:43:59.778Z,14.60
2022-10-31T18:46:28.942Z,14.60
2022-10-31T18:48:57.285Z,14.60
2022-10-31T18:51:25.643Z,14.50
2022-10-31T18:53:55.836Z,14.40
2022-10-31T18:56:26.315Z,14.40
2022-10-31T18:58:54.632Z,14.40
2022-10-31T19:01:23.684Z,14.40
2022-10-31T19:03:56.332Z,14.40
2022-10-31T19:06:25.307Z,14.40
2022-10-31T19:08:59.227Z,14.50
2022-10-31T19:11:29.127Z,14.50
2022-10-31T19:13:58.795Z,14.50
2022-10-31T19:16:27.014Z,14.50
2022-10-31T19:18:56.284Z,14.60
2022-10-31T19:21:24.972Z,14.70
2022-10-31T19:23:56.316Z,14.80
2022-10-31T19:26:25.125Z,14.90
2022-10-31T19:28:56.781Z,14.90
2022-10-31T19:31:25.738Z,15.00
2022-10-31T19:33:53.984Z,15.10
2022-10-31T19:36:22.366Z,15.10
2022-10-31T19:38:52.835Z,15.20
2022-10-31T19:41:23.445Z,15.30
2022-10-31T19:43:51.835Z,15.30
2022-10-31T19:46:40.534Z,15.30
2022-10-31T19:49:12.057Z,15.40
2022-10-31T19:51:40.380Z,15.50
2022-10-31T19:54:08.761Z,15.50
2022-10-31T19:56:36.998Z,15.40
2022-10-31T19:59:05.201Z,15.50
2022-10-31T20:01:34.851Z,15.40
2022-10-31T20:04:03.182Z,15.50
2022-10-31T20:06:34.863Z,15.40
2022-10-31T20:09:04.994Z,15.40
2022-10-31T20:11:33.239Z,15.40
2022-10-31T20:14:01.810Z,15.40
2022-10-31T20:16:30.479Z,15.40
2022-10-31T20:19:00.574Z,15.50
2022-10-31T20:21:30.127Z,15.40
2022-10-31T20:23:59.383Z,15.50
2022-10-31T20:26:28.686Z,15.60
2022-10-31T20:28:57.804Z,15.70
2022-10-31T20:31:28.519Z,15.70
2022-10-31T20:33:57.111Z,15.80
2022-10-31T20:36:28.768Z,15.90
2022-10-31T20:38:57.282Z,16.00
2022-10-31T20:41:26.385Z,16.10
2022-10-31T20:43:54.655Z,16.20
2022-10-31T20:46:24.592Z,16.20
2022-10-31T20:48:53.826Z,16.30
2022-10-31T20:51:23.486Z,16.40
2022-10-31T20:53:55.061Z,16.40
2022-10-31T20:56:25.832Z,16.50
2022-10-31T20:58:56.002Z,16.60
2022-10-31T21:01:26.190Z,16.60
2022-10-31T21:03:54.664Z,16.70
2022-10-31T21:06:24.090Z,16.70
2022-10-31T21:08:54.820Z,16.70
2022-10-31T21:11:24.976Z,16.70
2022-10-31T21:13:54.025Z,16.70
2022-10-31T21:16:24.385Z,16.80
2022-10-31T21:18:54.072Z,16.90
2022-10-31T21:21:29.085Z,16.90
2022-10-31T21:24:04.848Z,16.90
2022-10-31T21:26:35.447Z,17.00
2022-10-31T21:29:04.637Z,17.00
2022-10-31T21:31:33.726Z,17.10
2022-10-31T21:34:02.011Z,17.20
2022-10-31T21:36:30.325Z,17.20
2022-10-31T21:38:58.890Z,17.20
2022-10-31T21:41:28.941Z,17.30
2022-10-31T21:43:57.358Z,17.30
2022-10-31T21:46:27.270Z,17.40
2022-10-31T21:48:56.429Z,17.40
2022-10-31T21:51:26.786Z,17.40
2022-10-31T21:54:12.838Z,17.40
2022-10-31T21:56:42.555Z,17.50
2022-10-31T21:59:11.678Z,17.50
2022-10-31T22:01:40.184Z,17.50
2022-10-31T22:04:08.595Z,17.50
2022-10-31T22:06:37.266Z,17.50
2022-10-31T22:09:08.559Z,17.60
2022-10-31T22:11:36.868Z,17.60
2022-10-31T22:14:06.682Z,17.60
2022-10-31T22:16:36.907Z,17.70
2022-10-31T22:19:06.597Z,17.70
2022-10-31T22:21:38.415Z,17.70
2022-10-31T22:24:08.003Z,17.70
2022-10-31T22:26:37.178Z,17.70
2022-10-31T22:29:08.581Z,17.60
2022-10-31T22:31:40.600Z,17.70
2022-10-31T22:34:09.423Z,17.70
2022-10-31T22:36:38.249Z,17.70
2022-10-31T22:39:07.207Z,17.70
2022-10-31T22:41:36.998Z,17.70
2022-10-31T22:44:07.175Z,17.70
2022-10-31T22:46:37.180Z,17.70
2022-10-31T22:49:07.120Z,17.70
2022-10-31T22:51:37.646Z,17.70
2022-10-31T22:56:50.402Z,17.70
2022-10-31T22:59:20.035Z,17.70
2022-10-31T23:01:48.315Z,17.70
2022-10-31T23:04:17.245Z,17.80
2022-10-31T23:06:45.882Z,17.70
2022-10-31T23:09:16.094Z,17.80
2022-10-31T23:11:44.643Z,17.80
2022-10-31T23:14:16.413Z,17.70
2022-10-31T23:16:48.647Z,17.80
2022-10-31T23:19:18.735Z,17.80
2022-10-31T23:21:59.676Z,17.80
2022-10-31T23:24:35.935Z,17.90
2022-10-31T23:27:08.563Z,17.80
2022-10-31T23:29:39.370Z,17.80
2022-10-31T23:32:10.917Z,17.80
2022-10-31T23:34:39.128Z,17.80
2022-10-31T23:39:40.793Z,17.80
2022-10-31T23:42:09.198Z,17.70
2022-10-31T23:44:37.560Z,17.80
2022-10-31T23:47:06.515Z,17.70
2022-10-31T23:49:36.334Z,17.60
2022-10-31T23:52:05.430Z,17.60
2022-10-31T23:54:34.243Z,17.50
2022-10-31T23:57:03.207Z,17.50
2022-10-31T23:59:33.612Z,17.50
